Terminal Aerodrome Forecast
Issued by NWS

Home | Current Version | Previous Version | Text Only | Print | Product List | Glossary On
Versions: 1 2 3 4 5 6 7 8 9 10 11 12 13 14 15 16 17 18 19 20 21 22 23 24 25 26 27 28 29 30 31
000
FTUS41 KBOX 291005 AAA
TAFHYA
TAF AMD
KHYA 291005Z 2910/3006 00000KT P6SM SKC
      TEMPO 2910/2911 6SM BR SCT002
     FM291300 VRB03KT P6SM FEW250
     FM291800 22008KT P6SM FEW250
     FM300000 23009KT P6SM SCT050=

USA.gov is the U.S. government's official web portal to all federal, state and local government web resources and services.